createdAt,value
2022-11-12T00:02:37.715Z,62.26
2022-11-12T00:07:38.862Z,62.30
2022-11-12T00:12:40.454Z,62.17
2022-11-12T00:17:41.735Z,62.21
2022-11-12T00:22:43.107Z,62.18
2022-11-12T00:27:44.253Z,62.03
2022-11-12T00:32:45.372Z,61.91
2022-11-12T00:37:46.480Z,61.71
2022-11-12T00:42:49.542Z,61.36
2022-11-12T00:47:55.921Z,61.10
2022-11-12T00:52:57.099Z,60.92
2022-11-12T00:57:58.794Z,60.97
2022-11-12T01:02:59.900Z,61.01
2022-11-12T01:08:01.049Z,60.71
2022-11-12T01:13:02.179Z,60.53
2022-11-12T01:18:03.430Z,60.45
2022-11-12T01:23:05.540Z,60.34
2022-11-12T01:28:06.702Z,59.99
2022-11-12T01:33:08.152Z,59.69
2022-11-12T01:38:09.246Z,58.01
2022-11-12T01:43:13.473Z,59.03
2022-11-12T01:48:38.296Z,64.82
2022-11-12T01:53:44.936Z,65.14
2022-11-12T01:58:48.495Z,63.20
2022-11-12T02:03:49.769Z,62.08
2022-11-12T02:08:51.187Z,61.22
2022-11-12T02:14:02.854Z,60.53
2022-11-12T02:19:08.048Z,60.17
2022-11-12T02:24:11.932Z,60.25
2022-11-12T02:29:12.989Z,59.99
2022-11-12T02:34:14.137Z,59.66
2022-11-12T02:39:15.301Z,59.75
2022-11-12T02:44:16.432Z,57.42
2022-11-12T02:49:17.533Z,60.06
2022-11-12T02:54:18.622Z,65.51
2022-11-12T02:59:19.836Z,65.36
2022-11-12T03:04:20.942Z,63.42
2022-11-12T03:09:22.959Z,62.07
2022-11-12T03:14:24.917Z,61.16
2022-11-12T03:19:26.019Z,60.47
2022-11-12T03:24:28.305Z,60.14
2022-11-12T03:29:29.386Z,60.05
2022-11-12T03:34:30.826Z,59.73
2022-11-12T03:39:31.913Z,59.64
2022-11-12T03:44:33.366Z,57.48
2022-11-12T03:49:34.450Z,59.25
2022-11-12T03:54:35.629Z,64.84
2022-11-12T03:59:36.806Z,64.78
2022-11-12T04:04:56.744Z,62.80
2022-11-12T04:09:58.216Z,61.54
2022-11-12T04:15:01.499Z,60.71
2022-11-12T04:20:20.811Z,60.35
2022-11-12T04:25:40.752Z,59.68
2022-11-12T04:30:41.925Z,58.36
2022-11-12T04:35:43.105Z,58.17
2022-11-12T04:41:02.944Z,61.44
2022-11-12T04:46:04.522Z,67.47
2022-11-12T04:51:25.783Z,65.67
2022-11-12T04:56:26.967Z,63.46
2022-11-12T05:01:28.185Z,61.83
2022-11-12T05:06:48.237Z,60.83
2022-11-12T05:11:49.759Z,60.52
2022-11-12T05:16:51.522Z,60.14
2022-11-12T05:22:33.348Z,59.87
2022-11-12T05:27:33.699Z,59.62
2022-11-12T05:32:34.779Z,59.65
2022-11-12T05:37:35.878Z,59.64
2022-11-12T05:42:37.014Z,59.68
2022-11-12T05:47:38.173Z,59.87
2022-11-12T05:52:39.216Z,59.90
2022-11-12T05:57:40.332Z,59.98
2022-11-12T06:02:43.037Z,60.04
2022-11-12T06:07:44.359Z,60.44
2022-11-12T06:12:46.756Z,60.27
2022-11-12T06:17:47.842Z,59.73
2022-11-12T06:22:49.465Z,59.66
2022-11-12T06:27:50.886Z,59.76
2022-11-12T06:32:52.204Z,59.89
2022-11-12T06:37:54.556Z,59.68
2022-11-12T06:42:57.494Z,57.07
2022-11-12T06:47:59.178Z,58.23
2022-11-12T06:53:00.269Z,64.60
2022-11-12T06:58:01.383Z,65.03
2022-11-12T07:03:09.311Z,63.32
2022-11-12T07:08:10.535Z,62.04
2022-11-12T07:13:11.873Z,61.29
2022-11-12T07:18:13.032Z,60.52
2022-11-12T07:23:14.203Z,60.08
2022-11-12T07:28:15.558Z,59.81
2022-11-12T07:33:16.651Z,57.81
2022-11-12T07:38:18.551Z,59.68
2022-11-12T07:43:19.715Z,64.79
2022-11-12T07:48:20.805Z,64.91
2022-11-12T07:53:22.014Z,62.80
2022-11-12T07:58:24.243Z,61.82
2022-11-12T08:03:25.858Z,60.91
2022-11-12T08:08:27.431Z,59.97
2022-11-12T08:13:28.981Z,57.74
2022-11-12T08:18:32.525Z,59.41
2022-11-12T08:23:33.672Z,65.09
2022-11-12T08:28:36.528Z,64.53
2022-11-12T08:33:38.180Z,62.53
2022-11-12T08:38:40.013Z,61.10
2022-11-12T08:43:42.212Z,60.56
2022-11-12T08:48:43.340Z,59.08
2022-11-12T08:53:44.472Z,58.62
2022-11-12T08:58:45.583Z,64.80
2022-11-12T09:03:48.569Z,64.34
2022-11-12T09:08:49.650Z,62.34
2022-11-12T09:13:54.269Z,61.25
2022-11-12T09:18:55.535Z,60.72
2022-11-12T09:23:56.648Z,60.33
2022-11-12T09:28:57.914Z,57.81
2022-11-12T09:33:59.021Z,59.13
2022-11-12T09:39:00.802Z,64.79
2022-11-12T09:44:06.744Z,64.45
2022-11-12T09:49:28.320Z,62.43
2022-11-12T09:54:34.248Z,61.04
2022-11-12T09:59:40.550Z,59.83
2022-11-12T10:05:19.307Z,56.78
2022-11-12T10:10:40.456Z,60.82
2022-11-12T10:16:15.256Z,65.72
2022-11-12T10:21:34.981Z,63.32
2022-11-12T10:26:38.958Z,61.36
2022-11-12T10:31:40.091Z,59.92
2022-11-12T10:37:01.837Z,57.52
2022-11-12T10:42:22.241Z,60.54
2022-11-12T10:47:23.310Z,63.09
2022-11-12T10:52:24.656Z,61.21
2022-11-12T10:57:26.875Z,59.11
2022-11-12T11:02:28.025Z,57.22
2022-11-12T11:07:29.382Z,62.63
2022-11-12T11:12:33.354Z,62.22
2022-11-12T11:17:34.787Z,60.80
2022-11-12T11:22:43.150Z,59.66
2022-11-12T11:28:12.880Z,56.44
2022-11-12T11:33:32.839Z,58.00
2022-11-12T11:38:44.129Z,64.45
2022-11-12T11:43:48.397Z,63.56
2022-11-12T11:49:01.522Z,61.48
2022-11-12T11:54:40.105Z,59.09
2022-11-12T12:00:23.402Z,56.55
2022-11-12T12:05:36.548Z,59.32
2022-11-12T12:11:09.965Z,65.11
2022-11-12T12:16:33.217Z,64.24
2022-11-12T12:21:38.747Z,61.29
2022-11-12T12:26:46.122Z,60.18
2022-11-12T12:32:10.359Z,57.02
2022-11-12T12:37:21.317Z,58.68
2022-11-12T12:42:32.973Z,64.02
2022-11-12T12:47:42.395Z,64.03
2022-11-12T12:53:04.779Z,61.75
2022-11-12T12:58:35.323Z,60.02
2022-11-12T13:03:45.880Z,56.90
2022-11-12T13:08:59.777Z,58.49
2022-11-12T13:14:39.655Z,64.36
2022-11-12T13:20:02.512Z,64.05
2022-11-12T13:25:11.141Z,61.72
2022-11-12T13:30:20.056Z,60.78
2022-11-12T13:35:25.122Z,59.91
2022-11-12T13:40:29.323Z,57.31
2022-11-12T13:45:34.933Z,58.61
2022-11-12T13:50:40.382Z,60.42
2022-11-12T13:55:51.334Z,66.38
2022-11-12T14:00:55.126Z,66.02
2022-11-12T14:06:02.375Z,63.72
2022-11-12T14:11:12.687Z,62.33
2022-11-12T14:16:58.972Z,61.70
2022-11-12T14:22:21.078Z,61.09
2022-11-12T14:27:32.440Z,60.64
2022-11-12T14:32:40.066Z,60.61
2022-11-12T14:37:49.811Z,60.64
2022-11-12T14:42:52.777Z,60.74
2022-11-12T14:47:54.545Z,60.92
2022-11-12T14:53:07.221Z,61.04
2022-11-12T14:58:14.617Z,61.26
2022-11-12T15:03:22.320Z,61.43
2022-11-12T15:08:38.049Z,61.42
2022-11-12T15:13:43.851Z,61.58
2022-11-12T15:19:16.775Z,61.88
2022-11-12T15:24:38.387Z,62.35
2022-11-12T15:29:39.824Z,62.72
2022-11-12T15:34:41.197Z,63.06
2022-11-12T15:39:47.361Z,63.18
2022-11-12T15:44:50.260Z,63.26
2022-11-12T15:49:54.177Z,63.39
2022-11-12T15:54:55.327Z,63.21
2022-11-12T16:00:08.502Z,63.43
2022-11-12T16:05:14.513Z,63.94
2022-11-12T16:10:18.498Z,64.32
2022-11-12T16:15:24.856Z,64.14
2022-11-12T16:20:32.453Z,64.67
2022-11-12T16:25:36.518Z,64.64
2022-11-12T16:30:37.651Z,65.08
2022-11-12T16:35:39.792Z,65.14
2022-11-12T16:40:42.025Z,65.00
2022-11-12T16:45:44.612Z,64.82
2022-11-12T16:50:46.527Z,64.85
2022-11-12T16:55:47.873Z,65.54
2022-11-12T17:00:52.778Z,66.02
2022-11-12T17:05:54.070Z,66.01
2022-11-12T17:10:55.988Z,65.69
2022-11-12T17:15:57.948Z,65.64
2022-11-12T17:21:25.780Z,65.43
2022-11-12T17:26:29.755Z,65.06
2022-11-12T17:31:32.042Z,65.14
2022-11-12T17:36:33.179Z,65.02
2022-11-12T17:41:34.327Z,65.40
2022-11-12T17:46:35.753Z,65.47
2022-11-12T17:51:37.208Z,65.57
2022-11-12T17:56:38.533Z,65.56
2022-11-12T18:01:39.757Z,65.21
2022-11-12T18:06:41.224Z,65.12
2022-11-12T18:11:48.326Z,65.30
2022-11-12T18:16:50.428Z,65.14
2022-11-12T18:21:56.102Z,65.37
2022-11-12T18:26:58.821Z,65.39
2022-11-12T18:31:59.953Z,65.56
2022-11-12T18:37:01.172Z,65.61
2022-11-12T18:42:03.312Z,65.69
2022-11-12T18:47:04.521Z,65.26
2022-11-12T18:52:05.733Z,65.16
2022-11-12T18:57:06.918Z,65.12
2022-11-12T19:02:10.807Z,65.20
2022-11-12T19:07:12.012Z,64.98
2022-11-12T19:12:13.137Z,65.33
2022-11-12T19:17:14.328Z,65.20
2022-11-12T19:22:15.429Z,65.53
2022-11-12T19:27:16.646Z,65.68
2022-11-12T19:32:17.981Z,65.71
2022-11-12T19:37:33.045Z,65.68
2022-11-12T19:42:35.646Z,65.18
2022-11-12T19:47:40.158Z,65.05
2022-11-12T19:52:44.403Z,64.79
2022-11-12T19:57:46.563Z,65.08
2022-11-12T20:02:47.697Z,64.90
2022-11-12T20:07:50.848Z,64.57
2022-11-12T20:12:51.917Z,64.26
2022-11-12T20:17:54.261Z,64.15
2022-11-12T20:22:55.533Z,63.79
2022-11-12T20:27:56.775Z,63.87
2022-11-12T20:32:58.653Z,63.62
2022-11-12T20:37:59.750Z,63.56
2022-11-12T20:43:00.955Z,63.60
2022-11-12T20:48:04.575Z,63.40
2022-11-12T20:53:06.676Z,63.61
2022-11-12T20:58:07.894Z,63.37
2022-11-12T21:03:10.026Z,63.72
2022-11-12T21:08:12.567Z,63.45
2022-11-12T21:13:15.175Z,63.29
2022-11-12T21:18:16.783Z,63.46
2022-11-12T21:23:17.927Z,63.95
2022-11-12T21:28:19.064Z,63.97
2022-11-12T21:33:20.383Z,64.14
2022-11-12T21:38:22.893Z,64.40
2022-11-12T21:43:38.073Z,64.69
2022-11-12T21:48:39.862Z,64.73
2022-11-12T21:53:42.735Z,64.68
2022-11-12T21:58:44.707Z,64.86
2022-11-12T22:03:48.043Z,64.92
2022-11-12T22:08:54.199Z,64.85
2022-11-12T22:13:55.695Z,64.79
2022-11-12T22:18:58.644Z,64.36
2022-11-12T22:23:59.775Z,64.12
2022-11-12T22:29:00.976Z,63.87
2022-11-12T22:34:03.531Z,63.79
2022-11-12T22:39:07.266Z,64.06
2022-11-12T22:44:11.296Z,64.09
2022-11-12T22:49:12.440Z,63.98
2022-11-12T22:54:17.267Z,63.91
2022-11-12T22:59:18.437Z,63.86
2022-11-12T23:04:19.855Z,64.03
2022-11-12T23:09:24.176Z,63.90
2022-11-12T23:14:25.325Z,64.12
2022-11-12T23:19:27.200Z,63.93
2022-11-12T23:24:28.288Z,63.74
2022-11-12T23:29:29.415Z,63.37
2022-11-12T23:34:30.516Z,63.51
2022-11-12T23:39:31.615Z,63.76
2022-11-12T23:44:32.791Z,64.30
2022-11-12T23:49:33.870Z,64.63
2022-11-12T23:54:34.998Z,64.72
2022-11-12T23:59:36.160Z,64.83
